Time;durP1;ratioP1;P1;durP2;ratioP2;P2;SDS_P1;SDS_P2;PMS_P1;PMS_P2;Temp;Humidity;BMP_temperature;BMP_pressure;BME280_temperature;BME280_humidity;BME280_pressure;Samples;Min_cycle;Max_cycle;Signal;HPM_P1;HPM_P2
2022/09/06 00:02:24;;;;;;;7.55;6.85;;;;;;;20.32;58.90;99091.50;5044441;28;20112;-84
2022/09/06 00:04:49;;;;;;;7.53;6.93;;;;;;;20.19;59.51;99087.72;5066085;28;20032;-84
2022/09/06 00:07:15;;;;;;;12.10;9.05;;;;;;;19.92;63.72;99089.69;5041588;28;20036;-84
2022/09/06 00:09:40;;;;;;;11.48;10.05;;;;;;;20.08;62.89;99093.66;5034191;28;20029;-83
2022/09/06 00:12:06;;;;;;;9.80;8.75;;;;;;;19.82;62.38;99082.56;5065518;28;20477;-85
2022/09/06 00:14:31;;;;;;;8.57;7.15;;;;;;;19.95;59.94;99091.75;5051924;28;20055;-85
2022/09/06 00:16:57;;;;;;;7.45;6.78;;;;;;;20.14;59.59;99092.41;5038144;28;20080;-83
2022/09/06 00:19:22;;;;;;;11.93;10.25;;;;;;;19.66;64.72;99081.25;5063436;28;20448;-83
2022/09/06 00:21:47;;;;;;;8.23;7.45;;;;;;;19.61;62.05;99073.25;5072152;28;20032;-85
2022/09/06 00:24:13;;;;;;;7.95;7.15;;;;;;;19.63;61.42;99076.47;5064388;28;20849;-85
2022/09/06 00:26:38;;;;;;;10.52;9.43;;;;;;;19.60;65.37;99104.13;5052395;28;20129;-83
2022/09/06 00:29:03;;;;;;;10.15;8.05;;;;;;;19.60;60.62;99066.22;5068162;28;20036;-83
2022/09/06 00:31:29;;;;;;;9.52;8.48;;;;;;;19.93;61.59;99083.94;5063546;28;20051;-83
2022/09/06 00:33:54;;;;;;;7.07;6.47;;;;;;;19.83;59.76;99067.09;5066685;28;20078;-84
2022/09/06 00:36:21;;;;;;;9.90;7.07;;;;;;;20.03;58.88;99059.31;5048599;28;20053;-84
2022/09/06 00:38:46;;;;;;;8.68;7.60;;;;;;;20.34;58.06;99073.03;5058548;28;20055;-84
2022/09/06 00:41:13;;;;;;;7.00;6.40;;;;;;;20.37;58.23;99088.69;5073282;28;20472;-84
2022/09/06 00:43:40;;;;;;;8.82;8.02;;;;;;;20.23;58.67;99071.66;5075275;28;20101;-84
2022/09/06 00:46:08;;;;;;;8.52;7.60;;;;;;;20.23;58.53;99062.72;5071223;28;20028;-84
2022/09/06 00:48:35;;;;;;;9.48;7.88;;;;;;;20.22;58.25;99067.34;5054065;28;20498;-84
2022/09/06 00:51:04;;;;;;;7.80;7.00;;;;;;;20.27;58.92;99078.06;5083882;28;20021;-84
2022/09/06 00:53:30;;;;;;;9.63;8.38;;;;;;;20.15;61.23;99075.06;5064647;28;20047;-84
2022/09/06 00:55:56;;;;;;;8.27;7.53;;;;;;;19.63;62.54;99070.22;5063348;28;20127;-84
2022/09/06 00:58:23;;;;;;;7.65;6.95;;;;;;;20.11;59.55;99072.19;5069412;28;20539;-83
2022/09/06 01:00:49;;;;;;;7.80;7.00;;;;;;;20.18;59.12;99058.19;5063867;28;20093;-83
2022/09/06 01:03:14;;;;;;;8.25;7.45;;;;;;;19.98;59.91;99066.78;5082959;28;20036;-83
2022/09/06 01:06:09;;;;;;;8.30;7.40;;;;;;;20.18;59.10;99069.03;5061815;28;20029;-84
2022/09/06 01:08:41;;;;;;;8.50;7.35;;;;;;;20.21;59.04;99067.63;5046909;28;20400;-83
2022/09/06 01:11:21;;;;;;;10.00;9.00;;;;;;;20.02;61.37;99067.78;5069325;28;20442;-84
2022/09/06 01:14:14;;;;;;;10.85;8.60;;;;;;;19.36;65.61;99060.19;5066398;28;21439;-84
2022/09/06 01:16:56;;;;;;;9.30;8.13;;;;;;;19.97;59.93;99057.03;5066994;28;20032;-83
2022/09/06 01:19:21;;;;;;;11.07;7.95;;;;;;;19.95;59.59;99043.00;5082989;28;20365;-84
2022/09/06 01:22:01;;;;;;;9.25;7.57;;;;;;;20.02;60.06;99054.22;5067148;28;20170;-84
2022/09/06 01:24:46;;;;;;;7.82;7.13;;;;;;;19.99;59.75;99041.28;5066050;28;20106;-84
2022/09/06 01:27:43;;;;;;;8.73;7.93;;;;;;;20.13;59.50;99050.19;5070962;28;20064;-84
2022/09/06 01:30:11;;;;;;;8.45;7.65;;;;;;;20.13;59.53;99042.03;5031965;28;20044;-84
2022/09/06 01:32:53;;;;;;;9.23;8.30;;;;;;;20.05;59.52;99031.94;5068878;28;20017;-84
2022/09/06 01:35:28;;;;;;;10.07;7.90;;;;;;;20.07;59.87;99045.97;5057059;28;20051;-84
2022/09/06 01:37:55;;;;;;;8.50;7.70;;;;;;;20.03;59.84;99039.53;5065573;28;20388;-84
2022/09/06 01:40:21;;;;;;;8.98;8.07;;;;;;;19.96;59.70;99014.81;5063449;28;20312;-84
2022/09/06 01:42:48;;;;;;;12.63;10.43;;;;;;;19.43;64.75;99020.81;5047190;28;20064;-83
2022/09/06 01:45:19;;;;;;;8.85;8.00;;;;;;;19.50;61.56;99011.47;5062280;28;21854;-84
2022/09/06 01:47:59;;;;;;;8.60;7.78;;;;;;;19.91;60.21;99037.38;5045731;28;20517;-84
2022/09/06 01:50:44;;;;;;;8.77;7.97;;;;;;;19.91;60.35;99031.16;5068869;28;20167;-84
2022/09/06 01:53:33;;;;;;;9.13;8.23;;;;;;;19.92;60.21;99032.78;5067709;28;20484;-84
2022/09/06 01:56:07;;;;;;;8.95;8.15;;;;;;;19.89;60.20;99036.09;5060108;28;20028;-84
2022/09/06 01:58:35;;;;;;;10.13;8.30;;;;;;;19.89;60.37;99034.19;5062947;28;20020;-84
2022/09/06 02:01:15;;;;;;;9.15;8.23;;;;;;;19.79;60.54;99014.66;5061647;28;20029;-83
2022/09/06 02:03:58;;;;;;;9.95;8.98;;;;;;;19.61;61.19;99007.44;5063047;28;20107;-83
2022/09/06 02:06:28;;;;;;;11.95;8.45;;;;;;;19.58;61.27;99008.03;5062111;28;20032;-83
2022/09/06 02:09:07;;;;;;;10.07;8.25;;;;;;;19.81;60.85;99009.72;5066248;28;20025;-83
2022/09/06 02:11:41;;;;;;;9.65;8.68;;;;;;;19.79;60.70;99006.53;5065662;28;20028;-83
2022/09/06 02:14:22;;;;;;;9.43;8.40;;;;;;;19.78;60.92;98996.78;5065195;28;20456;-83
2022/09/06 02:16:49;;;;;;;11.27;9.45;;;;;;;19.60;61.20;98992.28;5065627;28;20029;-83
2022/09/06 02:19:34;;;;;;;13.68;11.52;;;;;;;18.79;68.51;98988.44;5066477;28;20032;-83
2022/09/06 02:22:05;;;;;;;9.73;8.77;;;;;;;19.49;61.98;99002.53;5063041;28;20043;-83
2022/09/06 02:24:36;;;;;;;9.90;8.93;;;;;;;19.46;61.95;98983.41;5055282;28;20033;-83
2022/09/06 02:27:01;;;;;;;10.10;9.05;;;;;;;19.65;61.33;98987.56;5062613;28;20033;-84
2022/09/06 02:29:27;;;;;;;9.82;8.50;;;;;;;19.74;60.84;98999.31;5053568;28;20039;-83
2022/09/06 02:32:17;;;;;;;9.57;8.68;;;;;;;19.79;60.96;99017.34;5045747;28;20029;-82
2022/09/06 02:34:44;;;;;;;13.93;12.50;;;;;;;19.04;67.86;99000.72;5076747;28;20032;-82
2022/09/06 02:37:11;;;;;;;12.25;10.73;;;;;;;19.20;64.24;98983.88;5063954;28;20025;-82
2022/09/06 02:39:37;;;;;;;9.88;8.98;;;;;;;19.49;62.06;99007.13;5069680;28;20407;-82
2022/09/06 02:42:04;;;;;;;10.60;9.60;;;;;;;19.54;62.32;99007.03;5065926;28;20036;-82
2022/09/06 02:44:30;;;;;;;9.82;8.93;;;;;;;19.59;61.55;99002.34;5067935;28;20599;-82
2022/09/06 02:46:55;;;;;;;11.48;10.20;;;;;;;19.29;64.69;98997.50;5046222;28;20042;-82
2022/09/06 02:49:20;;;;;;;9.80;8.98;;;;;;;19.27;63.04;98995.09;5048285;28;20050;-82
2022/09/06 02:51:46;;;;;;;10.88;9.82;;;;;;;18.94;65.14;98990.06;5068197;28;20044;-82
2022/09/06 02:54:12;;;;;;;11.45;10.25;;;;;;;18.88;65.55;98978.56;5037160;28;20041;-82
2022/09/06 02:56:37;;;;;;;12.38;11.18;;;;;;;18.57;68.04;98972.06;5056216;28;20033;-82
2022/09/06 02:59:03;;;;;;;11.35;10.13;;;;;;;18.90;65.33;98989.88;5065689;28;20047;-82
2022/09/06 03:01:29;;;;;;;19.27;15.60;;;;;;;18.78;68.63;98965.22;5071148;28;20039;-81
2022/09/06 03:03:55;;;;;;;16.58;14.88;;;;;;;18.20;73.02;98997.25;5070780;28;20487;-81
2022/09/06 03:06:21;;;;;;;15.90;14.20;;;;;;;18.06;74.00;98992.91;5062470;28;20086;-82
2022/09/06 03:08:46;;;;;;;17.33;15.55;;;;;;;17.98;72.86;98999.75;5063813;28;20032;-81
2022/09/06 03:11:12;;;;;;;19.58;15.65;;;;;;;17.86;74.56;98981.31;5044787;28;20581;-82
2022/09/06 03:13:37;;;;;;;16.73;12.55;;;;;;;18.15;72.52;99004.66;5045934;28;20056;-82
2022/09/06 03:16:02;;;;;;;14.05;12.63;;;;;;;18.10;73.20;98992.03;5063042;28;20048;-82
2022/09/06 03:18:29;;;;;;;17.80;14.57;;;;;;;18.52;70.38;99005.41;5030118;28;20063;-82
2022/09/06 03:20:55;;;;;;;13.63;12.23;;;;;;;18.33;71.05;99011.91;5059119;28;20484;-82
2022/09/06 03:23:24;;;;;;;18.20;14.13;;;;;;;18.31;71.98;98990.59;5049846;28;20031;-82
2022/09/06 03:25:50;;;;;;;16.33;13.70;;;;;;;18.03;74.27;99007.78;5057726;28;20037;-81
2022/09/06 03:28:16;;;;;;;16.45;12.48;;;;;;;18.07;72.88;98992.59;5058545;28;21450;-82
2022/09/06 03:30:47;;;;;;;14.05;12.65;;;;;;;17.81;75.21;98994.88;5059435;28;20373;-82
2022/09/06 03:33:13;;;;;;;17.90;15.18;;;;;;;17.71;76.18;99000.41;5063077;28;20052;-82
2022/09/06 03:35:39;;;;;;;14.77;12.75;;;;;;;17.84;74.27;99002.38;5054818;28;20068;-82
2022/09/06 03:38:04;;;;;;;12.85;11.50;;;;;;;17.82;72.45;98991.06;5060749;28;20078;-81
2022/09/06 03:40:30;;;;;;;13.70;12.38;;;;;;;17.83;75.52;98992.69;5056922;28;20035;-82
2022/09/06 03:42:55;;;;;;;15.73;14.05;;;;;;;17.57;75.68;98966.31;5064484;28;20122;-82
2022/09/06 03:45:21;;;;;;;15.77;14.18;;;;;;;17.69;75.87;98982.91;5063584;28;20056;-82
2022/09/06 03:47:46;;;;;;;13.07;11.65;;;;;;;18.20;70.29;98996.44;5064477;28;20082;-82
2022/09/06 03:50:12;;;;;;;16.92;14.88;;;;;;;17.93;75.17;98984.44;5069216;28;20056;-82
2022/09/06 03:52:37;;;;;;;12.43;10.65;;;;;;;18.10;68.47;98989.31;5062620;28;20082;-82
2022/09/06 03:55:06;;;;;;;15.13;13.52;;;;;;;18.21;72.86;98990.78;5050259;28;20032;-82
2022/09/06 03:57:32;;;;;;;16.98;14.85;;;;;;;17.73;75.52;98978.53;5066215;28;20082;-82
2022/09/06 03:59:57;;;;;;;16.35;13.07;;;;;;;17.97;73.79;98974.63;5061443;28;20036;-81
2022/09/06 04:02:23;;;;;;;11.27;10.18;;;;;;;18.22;69.74;98983.44;5041468;28;20573;-81
2022/09/06 04:04:48;;;;;;;12.93;11.55;;;;;;;18.08;73.01;98972.59;5065408;28;20052;-82
2022/09/06 04:07:14;;;;;;;17.83;14.05;;;;;;;18.18;72.36;98964.34;5045637;28;20051;-82
2022/09/06 04:09:39;;;;;;;14.52;12.50;;;;;;;18.49;70.51;98972.78;5061829;28;20028;-81
2022/09/06 04:12:05;;;;;;;13.48;9.55;;;;;;;18.81;65.43;98969.22;5044871;28;20031;-82
2022/09/06 04:14:30;;;;;;;14.10;12.57;;;;;;;18.53;70.68;98968.38;5042578;28;20428;-81
2022/09/06 04:16:55;;;;;;;14.82;12.15;;;;;;;18.65;67.75;98955.19;5059884;28;20020;-79
2022/09/06 04:19:21;;;;;;;10.98;9.82;;;;;;;18.89;64.45;98955.81;5062952;28;20036;-80
2022/09/06 04:21:46;;;;;;;10.27;9.27;;;;;;;18.59;65.75;98949.06;5050287;28;20115;-81
2022/09/06 04:24:12;;;;;;;15.25;13.55;;;;;;;18.14;73.95;98968.72;5032774;28;20021;-79
2022/09/06 04:26:38;;;;;;;15.55;12.90;;;;;;;17.85;74.70;98952.69;5058405;28;20029;-79
2022/09/06 04:29:03;;;;;;;10.30;9.30;;;;;;;18.07;69.81;98956.69;5082231;28;20067;-80
2022/09/06 04:31:28;;;;;;;12.10;10.85;;;;;;;18.50;68.30;98958.16;5049164;28;20036;-79
2022/09/06 04:33:54;;;;;;;15.20;13.43;;;;;;;17.80;75.61;98944.66;5052147;28;20558;-80
2022/09/06 04:36:20;;;;;;;15.75;13.02;;;;;;;18.13;72.12;98955.53;5065636;28;20048;-80
2022/09/06 04:38:45;;;;;;;14.50;13.02;;;;;;;17.98;74.74;98949.25;5052506;28;20111;-80
2022/09/06 04:41:14;;;;;;;10.65;9.02;;;;;;;18.09;70.89;98936.38;5063093;28;20024;-80
2022/09/06 04:43:40;;;;;;;10.93;9.90;;;;;;;18.69;65.44;98939.97;5065678;28;20085;-80
2022/09/06 04:46:08;;;;;;;11.38;10.30;;;;;;;18.69;65.42;98950.78;5062501;28;20024;-79
2022/09/06 04:48:34;;;;;;;15.05;12.98;;;;;;;18.25;72.90;98936.94;5058127;28;20090;-79
2022/09/06 04:51:00;;;;;;;15.63;12.57;;;;;;;18.49;71.39;98951.16;5031568;28;20036;-80
2022/09/06 04:53:25;;;;;;;10.45;9.52;;;;;;;18.59;67.05;98948.25;5043813;28;20048;-80
2022/09/06 04:55:51;;;;;;;17.73;12.98;;;;;;;18.39;72.20;98945.91;5069135;28;20532;-80
2022/09/06 04:58:16;;;;;;;10.18;9.18;;;;;;;19.07;63.93;98952.19;5065561;28;20055;-80
2022/09/06 05:00:43;;;;;;;9.80;8.80;;;;;;;19.13;63.62;98958.34;5064078;28;20393;-80
2022/09/06 05:03:08;;;;;;;9.75;8.85;;;;;;;19.03;64.87;98951.19;5047059;28;20025;-79
2022/09/06 05:05:34;;;;;;;14.27;9.82;;;;;;;18.48;69.50;98953.03;5044525;28;20717;-79
2022/09/06 05:07:59;;;;;;;19.67;12.90;;;;;;;18.18;73.38;98966.22;5054967;28;20040;-80
2022/09/06 05:10:25;;;;;;;15.77;11.10;;;;;;;18.88;69.61;98958.81;5068380;28;20028;-80
2022/09/06 05:12:52;;;;;;;18.50;11.88;;;;;;;18.85;71.14;98971.03;5057026;28;20068;-80
2022/09/06 05:15:19;;;;;;;10.88;9.38;;;;;;;19.06;69.68;98956.03;5063739;28;20036;-80
2022/09/06 05:17:45;;;;;;;13.73;10.73;;;;;;;19.20;68.96;98962.22;5050622;28;20506;-79
2022/09/06 05:20:11;;;;;;;11.48;10.45;;;;;;;19.19;67.92;98963.34;5071912;28;20056;-79
2022/09/06 05:22:37;;;;;;;10.73;9.63;;;;;;;19.16;68.44;98941.47;5061401;28;20123;-79
2022/09/06 05:25:03;;;;;;;11.48;10.18;;;;;;;19.24;68.04;98951.59;5060867;28;20367;-79
2022/09/06 05:27:28;;;;;;;13.25;9.85;;;;;;;19.25;68.49;98970.25;5058825;28;20028;-79
2022/09/06 05:29:53;;;;;;;14.02;9.80;;;;;;;19.26;68.12;98962.94;5048431;28;20065;-79
2022/09/06 05:32:19;;;;;;;14.20;10.98;;;;;;;19.10;69.73;98961.63;5078692;28;20062;-80
2022/09/06 05:34:44;;;;;;;10.40;9.23;;;;;;;19.01;68.30;98961.53;5069536;28;20521;-79
2022/09/06 05:37:10;;;;;;;12.93;10.07;;;;;;;19.26;68.24;98965.63;5034303;28;20075;-80
2022/09/06 05:39:35;;;;;;;11.48;9.35;;;;;;;19.35;68.32;98964.63;5060850;28;20036;-80
2022/09/06 05:42:05;;;;;;;12.38;10.10;;;;;;;19.16;68.73;98955.00;5066608;28;20472;-80
2022/09/06 05:44:33;;;;;;;11.95;9.32;;;;;;;19.37;68.21;98980.59;5067428;28;20055;-80
2022/09/06 05:47:00;;;;;;;12.65;9.75;;;;;;;19.18;68.72;98975.25;5071199;28;20037;-80
2022/09/06 05:49:27;;;;;;;12.15;9.50;;;;;;;19.28;68.84;99004.03;5071048;28;20032;-80
2022/09/06 05:51:52;;;;;;;12.93;9.93;;;;;;;19.24;69.07;99000.31;5063819;28;20043;-80
2022/09/06 05:54:18;;;;;;;12.88;9.68;;;;;;;19.29;68.93;98998.31;5067903;28;20028;-79
2022/09/06 05:56:43;;;;;;;10.98;9.45;;;;;;;19.35;68.67;98994.41;5058412;28;20115;-80
2022/09/06 05:59:09;;;;;;;12.82;9.38;;;;;;;19.36;68.47;98981.69;5072374;28;20050;-79
2022/09/06 06:01:34;;;;;;;12.15;10.98;;;;;;;19.17;71.03;99008.84;5036601;28;20028;-80
2022/09/06 06:04:02;;;;;;;12.00;10.90;;;;;;;18.74;73.28;99003.97;5066824;28;20031;-80
2022/09/06 06:06:33;;;;;;;10.60;8.88;;;;;;;19.24;69.43;99013.84;5076763;28;20056;-80
2022/09/06 06:08:59;;;;;;;15.48;12.00;;;;;;;18.64;72.82;99018.47;5061470;28;20104;-79
2022/09/06 06:11:25;;;;;;;18.48;13.93;;;;;;;18.56;74.42;99021.84;5071734;28;20369;-80
2022/09/06 06:13:51;;;;;;;15.75;10.18;;;;;;;19.36;69.27;99022.28;5073907;28;20791;-80
2022/09/06 06:16:20;;;;;;;10.65;9.38;;;;;;;19.25;69.00;98985.66;5066544;28;20035;-79
2022/09/06 06:18:46;;;;;;;25.48;12.80;;;;;;;18.89;73.08;99026.16;5066176;28;20047;-80
2022/09/06 06:21:18;;;;;;;16.45;10.38;;;;;;;18.52;73.29;99023.56;5063347;28;20028;-79
2022/09/06 06:23:46;;;;;;;24.65;14.43;;;;;;;18.30;76.00;99018.75;5059936;28;20468;-79
2022/09/06 06:26:12;;;;;;;21.27;13.50;;;;;;;17.81;77.43;98981.38;5068436;28;20031;-79
2022/09/06 06:28:38;;;;;;;14.13;10.05;;;;;;;18.65;72.80;99009.28;5051606;28;20586;-79
2022/09/06 06:31:05;;;;;;;19.80;12.55;;;;;;;18.89;72.80;99009.91;5066325;28;20085;-79
2022/09/06 06:33:31;;;;;;;18.75;10.80;;;;;;;18.98;71.23;99002.69;5065754;28;20036;-79
2022/09/06 06:35:57;;;;;;;15.80;10.07;;;;;;;18.96;71.50;99014.94;5048399;28;20047;-79
2022/09/06 06:38:23;;;;;;;17.23;10.68;;;;;;;19.44;69.26;99005.34;5063882;28;20128;-80
2022/09/06 06:40:48;;;;;;;25.17;12.85;;;;;;;19.22;71.92;99016.06;5060104;28;20128;-79
2022/09/06 06:43:14;;;;;;;23.83;13.70;;;;;;;18.07;76.60;98989.09;5060050;28;20557;-79
2022/09/06 06:45:39;;;;;;;22.33;13.70;;;;;;;18.14;76.68;99005.75;5065909;28;20139;-79
2022/09/06 06:48:05;;;;;;;16.08;11.57;;;;;;;19.03;71.23;99005.31;5061181;28;20028;-79
2022/09/06 06:50:30;;;;;;;15.18;10.55;;;;;;;19.57;69.16;99015.34;5069918;28;20040;-79
2022/09/06 06:52:55;;;;;;;14.45;10.57;;;;;;;19.62;68.89;98992.78;5068012;28;20028;-80
2022/09/06 06:55:21;;;;;;;18.40;12.55;;;;;;;19.22;73.73;99007.94;5063077;28;20516;-80
2022/09/06 06:57:47;;;;;;;22.83;13.55;;;;;;;18.57;76.04;98997.22;5058280;28;20427;-80
2022/09/06 07:00:12;;;;;;;17.77;10.93;;;;;;;19.18;72.31;98988.78;5065367;28;20044;-80
2022/09/06 07:02:38;;;;;;;14.40;10.20;;;;;;;19.62;69.75;98990.06;5064541;28;20032;-80
2022/09/06 07:05:03;;;;;;;18.63;12.43;;;;;;;19.20;74.08;98994.69;5042001;28;20035;-80
2022/09/06 07:07:29;;;;;;;15.55;11.45;;;;;;;19.55;70.46;98989.72;5058569;28;20037;-80
2022/09/06 07:09:54;;;;;;;11.55;10.35;;;;;;;19.68;70.38;98986.19;5070386;28;20511;-80
2022/09/06 07:12:19;;;;;;;19.25;12.30;;;;;;;19.17;73.72;98980.97;5049041;28;20127;-79
2022/09/06 07:14:45;;;;;;;21.45;11.43;;;;;;;19.49;72.82;98990.91;5061243;28;20067;-80
2022/09/06 07:17:10;;;;;;;17.45;12.05;;;;;;;19.44;72.82;99000.72;5044561;28;20036;-80
2022/09/06 07:19:35;;;;;;;15.43;11.73;;;;;;;19.22;73.74;98995.19;5057306;28;20085;-80
2022/09/06 07:22:01;;;;;;;22.10;11.68;;;;;;;19.33;73.52;98990.41;5057564;28;20493;-79
2022/09/06 07:24:26;;;;;;;16.17;10.43;;;;;;;19.55;71.34;98981.59;5059171;28;20401;-80
2022/09/06 07:26:51;;;;;;;13.40;8.95;;;;;;;20.12;68.21;98992.44;5042646;28;20094;-79
2022/09/06 07:29:17;;;;;;;19.02;10.85;;;;;;;19.72;72.36;99000.72;5071180;28;20492;-80
2022/09/06 07:31:42;;;;;;;17.60;9.90;;;;;;;19.86;69.96;98996.84;5061320;28;20148;-80
2022/09/06 07:34:07;;;;;;;17.80;9.38;;;;;;;20.05;69.90;98986.66;5062316;28;20056;-80
2022/09/06 07:36:34;;;;;;;15.10;10.70;;;;;;;19.38;73.17;98988.41;5065266;28;20016;-79
2022/09/06 07:38:59;;;;;;;14.75;10.77;;;;;;;19.38;72.83;98968.66;5059991;28;20055;-80
2022/09/06 07:41:24;;;;;;;18.05;10.77;;;;;;;19.85;70.11;98981.72;5064111;28;20472;-80
2022/09/06 07:43:53;;;;;;;13.38;9.02;;;;;;;19.88;70.37;98977.56;5048600;28;20036;-80
2022/09/06 07:46:20;;;;;;;13.48;9.85;;;;;;;19.69;72.23;98976.94;5048429;28;20115;-80
2022/09/06 07:48:46;;;;;;;16.17;10.35;;;;;;;19.58;71.90;98975.53;5066968;28;20036;-80
2022/09/06 07:51:17;;;;;;;13.30;10.45;;;;;;;19.38;72.91;98977.59;5060951;28;20114;-80
2022/09/06 07:53:46;;;;;;;15.30;10.45;;;;;;;19.56;73.21;98988.59;5057871;28;20032;-80
2022/09/06 07:56:12;;;;;;;9.80;8.82;;;;;;;20.13;68.28;98987.84;5062281;28;20041;-80
2022/09/06 07:58:39;;;;;;;15.93;10.43;;;;;;;19.94;72.00;98984.50;5058716;28;20039;-80
2022/09/06 08:01:28;;;;;;;14.93;10.25;;;;;;;19.76;72.74;98978.13;5064229;28;20468;-80
2022/09/06 08:03:55;;;;;;;17.73;11.10;;;;;;;19.65;72.60;98975.94;5066949;28;20025;-80
2022/09/06 08:06:22;;;;;;;17.92;10.80;;;;;;;19.93;72.13;98977.47;5065927;28;20553;-79
2022/09/06 08:08:48;;;;;;;9.77;7.78;;;;;;;20.35;68.28;98965.38;5071474;28;20484;-80
2022/09/06 08:11:13;;;;;;;10.57;8.82;;;;;;;20.20;70.68;98969.25;5037146;28;20036;-80
2022/09/06 08:13:38;;;;;;;22.00;11.00;;;;;;;19.97;71.74;98967.63;5059331;28;20111;-80
2022/09/06 08:16:07;;;;;;;11.43;8.77;;;;;;;20.22;69.85;98958.94;5064131;28;20032;-80
2022/09/06 08:18:34;;;;;;;11.32;10.13;;;;;;;20.29;70.79;98972.06;5072187;28;20027;-80
2022/09/06 08:21:05;;;;;;;14.32;10.32;;;;;;;20.28;71.39;98976.66;5063222;28;20118;-80
2022/09/06 08:23:31;;;;;;;12.18;10.07;;;;;;;20.24;71.46;98964.84;5080669;28;20040;-80
2022/09/06 08:25:57;;;;;;;13.10;10.02;;;;;;;20.05;71.15;98953.34;5071710;28;20032;-80
2022/09/06 08:28:23;;;;;;;12.02;10.52;;;;;;;20.12;71.26;98956.41;5061432;28;20442;-80
2022/09/06 08:30:48;;;;;;;16.42;9.65;;;;;;;20.09;71.47;98973.31;5060619;28;20036;-79
2022/09/06 08:33:14;;;;;;;12.55;9.18;;;;;;;20.17;71.00;98953.59;5066830;28;20039;-80
2022/09/06 08:35:40;;;;;;;17.00;9.55;;;;;;;20.35;69.60;98960.78;5050716;28;20506;-80
2022/09/06 08:38:05;;;;;;;13.63;9.18;;;;;;;20.74;68.42;98977.13;5070152;28;20063;-80
2022/09/06 08:40:31;;;;;;;19.40;9.63;;;;;;;20.34;70.23;98958.34;5071382;28;20554;-80
2022/09/06 08:42:57;;;;;;;11.60;10.32;;;;;;;20.18;70.37;98966.81;5072520;28;20032;-79
2022/09/06 08:45:23;;;;;;;16.42;10.02;;;;;;;20.32;70.09;98958.66;5074693;28;20028;-80
2022/09/06 08:47:51;;;;;;;13.80;9.00;;;;;;;20.27;70.53;98952.59;5072272;28;20042;-80
2022/09/06 08:50:17;;;;;;;9.57;8.60;;;;;;;20.47;68.51;98941.19;5074869;28;20095;-80
2022/09/06 08:52:58;;;;;;;18.38;9.27;;;;;;;20.85;68.70;98964.06;5069889;28;20020;-80
2022/09/06 08:55:36;;;;;;;13.30;9.38;;;;;;;20.68;69.08;98966.72;5068628;28;20486;-80
2022/09/06 08:58:21;;;;;;;8.93;8.13;;;;;;;20.78;68.41;98950.16;5072265;28;20025;-80
2022/09/06 09:01:04;;;;;;;10.73;8.37;;;;;;;20.35;69.91;98971.63;5081560;28;20123;-79
2022/09/06 09:03:33;;;;;;;9.98;8.35;;;;;;;20.44;70.48;98969.75;5074460;28;20216;-80
2022/09/06 09:06:00;;;;;;;9.68;8.65;;;;;;;20.65;68.82;98970.03;5061702;28;20064;-80
2022/09/06 09:08:31;;;;;;;13.70;10.00;;;;;;;20.53;69.87;98967.88;5050376;28;20040;-79
2022/09/06 09:11:00;;;;;;;13.00;8.43;;;;;;;20.93;68.71;98960.59;5067260;28;20089;-80
2022/09/06 09:13:54;;;;;;;13.75;9.50;;;;;;;20.86;68.47;98947.47;5052836;28;20075;-80
2022/09/06 09:16:20;;;;;;;9.40;8.45;;;;;;;21.13;68.18;98962.78;5072413;28;20417;-80
2022/09/06 09:18:50;;;;;;;11.55;9.43;;;;;;;20.91;68.79;98947.34;5069654;28;20131;-79
2022/09/06 09:21:21;;;;;;;11.02;8.95;;;;;;;20.71;69.53;98942.47;5072226;28;20036;-79
2022/09/06 09:23:52;;;;;;;10.27;8.52;;;;;;;20.79;69.58;98949.81;5066113;28;20469;-79
2022/09/06 09:26:18;;;;;;;13.25;9.32;;;;;;;20.95;68.99;98950.22;5067805;28;20487;-79
2022/09/06 09:29:09;;;;;;;10.18;9.10;;;;;;;20.84;69.06;98943.47;5064031;28;20119;-79
2022/09/06 09:31:46;;;;;;;11.88;10.00;;;;;;;21.01;68.43;98946.28;5039008;28;20029;-79
2022/09/06 09:34:13;;;;;;;11.05;9.80;;;;;;;20.97;68.65;98937.13;5064603;28;20086;-79
2022/09/06 09:36:39;;;;;;;11.75;8.60;;;;;;;21.07;68.19;98923.31;5060110;28;20026;-79
2022/09/06 09:39:09;;;;;;;13.60;9.25;;;;;;;21.11;68.37;98934.34;5071999;28;20024;-79
2022/09/06 09:41:38;;;;;;;9.88;8.85;;;;;;;21.13;68.83;98934.81;5068054;28;20035;-79
2022/09/06 09:44:07;;;;;;;15.50;10.02;;;;;;;21.21;68.11;98923.22;5067884;28;20475;-79
2022/09/06 09:46:38;;;;;;;12.65;9.43;;;;;;;21.23;68.03;98923.69;5078892;28;20034;-79
2022/09/06 09:49:11;;;;;;;9.20;8.30;;;;;;;21.28;68.69;98928.97;5055438;28;20061;-79
2022/09/06 09:51:39;;;;;;;9.10;8.15;;;;;;;21.71;67.13;98934.47;5060377;28;20389;-79
2022/09/06 09:54:08;;;;;;;18.52;9.65;;;;;;;21.68;67.37;98922.31;5065504;28;20035;-79
2022/09/06 09:56:42;;;;;;;14.40;8.80;;;;;;;21.76;66.93;98907.91;5087487;28;20037;-79
2022/09/06 09:59:27;;;;;;;12.25;9.18;;;;;;;21.90;66.43;98914.03;5069965;28;20016;-79
2022/09/06 10:01:55;;;;;;;18.67;9.98;;;;;;;22.15;65.57;98915.91;5064568;28;20036;-79
2022/09/06 10:04:29;;;;;;;13.73;9.23;;;;;;;22.41;64.88;98901.47;5055829;28;20055;-79
2022/09/06 10:07:07;;;;;;;11.13;9.05;;;;;;;22.61;64.42;98917.13;5065462;28;20024;-79
2022/09/06 10:09:37;;;;;;;10.20;8.43;;;;;;;22.61;64.06;98901.59;5056144;28;20087;-79
2022/09/06 10:12:03;;;;;;;9.57;8.43;;;;;;;22.75;63.40;98912.28;5063688;28;20082;-79
2022/09/06 10:14:29;;;;;;;9.75;8.45;;;;;;;22.97;63.29;98912.81;5058798;28;20036;-79
2022/09/06 10:16:55;;;;;;;8.68;7.78;;;;;;;23.26;62.40;98909.31;5065054;28;20024;-79
2022/09/06 10:19:39;;;;;;;8.68;7.78;;;;;;;23.32;62.61;98910.72;5053768;28;20548;-79
2022/09/06 10:22:28;;;;;;;8.73;7.60;;;;;;;23.44;61.76;98907.28;5065903;28;20052;-79
2022/09/06 10:25:04;;;;;;;10.57;8.18;;;;;;;23.41;61.11;98903.31;5050142;28;20504;-79
2022/09/06 10:27:32;;;;;;;;;;;;;;;23.27;61.35;98896.47;5058891;28;20108;-79
2022/09/06 10:30:03;;;;;;;15.35;7.40;;;;;;;23.16;61.19;98887.88;5063434;28;19916;-79
2022/09/06 10:32:41;;;;;;;8.00;7.07;;;;;;;23.50;61.36;98886.91;5065413;28;20036;-79
2022/09/06 10:35:09;;;;;;;8.93;7.82;;;;;;;23.42;60.92;98894.00;5064842;28;20028;-79
2022/09/06 10:37:35;;;;;;;8.60;7.57;;;;;;;23.53;60.79;98895.19;5062403;28;20099;-79
2022/09/06 10:40:06;;;;;;;7.70;6.93;;;;;;;23.80;60.49;98881.03;5062553;28;20131;-79
2022/09/06 10:42:41;;;;;;;11.52;7.78;;;;;;;23.90;60.25;98873.56;5064159;28;20028;-79
2022/09/06 10:45:42;;;;;;;7.28;6.68;;;;;;;23.98;60.07;98894.53;5058955;28;20029;-79
2022/09/06 10:48:18;;;;;;;17.02;7.97;;;;;;;24.11;59.84;98880.63;5042553;28;20033;-79
2022/09/06 10:51:09;;;;;;;9.95;6.90;;;;;;;24.26;59.07;98884.63;5061899;28;20059;-79
2022/09/06 10:53:40;;;;;;;8.68;7.85;;;;;;;24.30;58.91;98893.75;5074513;28;20035;-79
2022/09/06 10:56:42;;;;;;;9.38;7.20;;;;;;;24.27;58.76;98880.75;5063785;28;20035;-79
2022/09/06 10:59:27;;;;;;;9.80;7.43;;;;;;;24.27;59.01;98865.19;5062087;28;20028;-79
2022/09/06 11:02:07;;;;;;;11.57;7.93;;;;;;;24.23;58.96;98877.13;5065433;28;20115;-79
2022/09/06 11:04:38;;;;;;;9.85;6.75;;;;;;;24.64;57.87;98868.78;5057942;28;20025;-79
2022/09/06 11:07:36;;;;;;;7.03;6.38;;;;;;;24.67;57.64;98854.47;5068050;28;20090;-79
2022/09/06 11:10:01;;;;;;;9.23;6.50;;;;;;;24.75;57.19;98863.72;5065002;28;20128;-79
2022/09/06 11:12:36;;;;;;;7.15;6.30;;;;;;;24.94;57.28;98875.66;5070191;28;20555;-79
2022/09/06 11:15:05;;;;;;;9.82;6.57;;;;;;;25.23;56.58;98871.84;5066217;28;20488;-79
2022/09/06 11:17:59;;;;;;;9.60;6.40;;;;;;;24.98;55.76;98862.91;5067963;28;20059;-79
2022/09/06 11:20:38;;;;;;;11.15;6.65;;;;;;;24.77;56.18;98854.03;5063834;28;20468;-79
2022/09/06 11:23:31;;;;;;;8.82;5.63;;;;;;;25.47;56.13;98866.38;5067939;28;20104;-79
2022/09/06 11:25:57;;;;;;;10.20;6.65;;;;;;;25.38;55.03;98867.66;5066530;28;20054;-79
2022/09/06 11:28:34;;;;;;;8.15;6.25;;;;;;;25.48;55.40;98848.84;5069032;28;20479;-79
2022/09/06 11:31:01;;;;;;;7.40;6.13;;;;;;;25.64;55.22;98846.19;5059427;28;20104;-80
2022/09/06 11:33:29;;;;;;;6.82;5.22;;;;;;;26.00;54.20;98859.69;5074028;28;20035;-79
2022/09/06 11:36:19;;;;;;;8.95;6.13;;;;;;;26.18;53.93;98860.22;5053035;28;20032;-79